sensor_id;sensor_type;location;lat;lon;timestamp;P1;durP1;ratioP1;P2;durP2;ratioP2
64188;SDS011;50493;50.970;10.082;2023-04-03T00:00:04;6.38;;;1.55;;
64188;SDS011;50493;50.970;10.082;2023-04-03T00:02:31;6.10;;;1.35;;
64188;SDS011;50493;50.970;10.082;2023-04-03T00:04:57;4.68;;;1.40;;
64188;SDS011;50493;50.970;10.082;2023-04-03T00:07:23;3.90;;;1.30;;
64188;SDS011;50493;50.970;10.082;2023-04-03T00:09:49;3.83;;;1.30;;
64188;SDS011;50493;50.970;10.082;2023-04-03T00:12:14;4.38;;;1.50;;
64188;SDS011;50493;50.970;10.082;2023-04-03T00:14:40;2.42;;;1.10;;
64188;SDS011;50493;50.970;10.082;2023-04-03T00:17:05;5.47;;;1.33;;
64188;SDS011;50493;50.970;10.082;2023-04-03T00:19:31;4.50;;;1.33;;
64188;SDS011;50493;50.970;10.082;2023-04-03T00:21:56;4.53;;;1.30;;
64188;SDS011;50493;50.970;10.082;2023-04-03T00:24:23;5.97;;;1.85;;
64188;SDS011;50493;50.970;10.082;2023-04-03T00:26:49;3.83;;;1.20;;
64188;SDS011;50493;50.970;10.082;2023-04-03T00:29:14;3.83;;;1.30;;
64188;SDS011;50493;50.970;10.082;2023-04-03T00:31:40;7.53;;;1.60;;
64188;SDS011;50493;50.970;10.082;2023-04-03T00:34:05;4.10;;;1.20;;
64188;SDS011;50493;50.970;10.082;2023-04-03T00:36:30;3.70;;;1.17;;
64188;SDS011;50493;50.970;10.082;2023-04-03T00:38:56;4.40;;;1.30;;
64188;SDS011;50493;50.970;10.082;2023-04-03T00:41:22;3.88;;;1.30;;
64188;SDS011;50493;50.970;10.082;2023-04-03T00:43:48;3.40;;;1.88;;
64188;SDS011;50493;50.970;10.082;2023-04-03T00:46:13;4.18;;;1.40;;
64188;SDS011;50493;50.970;10.082;2023-04-03T00:48:39;2.92;;;1.35;;
64188;SDS011;50493;50.970;10.082;2023-04-03T00:51:07;8.98;;;2.13;;
64188;SDS011;50493;50.970;10.082;2023-04-03T00:53:37;5.65;;;1.70;;
64188;SDS011;50493;50.970;10.082;2023-04-03T00:56:07;5.18;;;1.60;;
64188;SDS011;50493;50.970;10.082;2023-04-03T00:58:37;6.85;;;2.10;;
64188;SDS011;50493;50.970;10.082;2023-04-03T01:01:08;3.88;;;1.60;;
64188;SDS011;50493;50.970;10.082;2023-04-03T01:03:37;11.02;;;4.03;;
64188;SDS011;50493;50.970;10.082;2023-04-03T01:06:03;5.57;;;2.50;;
64188;SDS011;50493;50.970;10.082;2023-04-03T01:08:29;4.72;;;1.50;;
64188;SDS011;50493;50.970;10.082;2023-04-03T01:10:55;6.50;;;2.20;;
64188;SDS011;50493;50.970;10.082;2023-04-03T01:13:21;4.38;;;1.40;;
64188;SDS011;50493;50.970;10.082;2023-04-03T01:15:50;5.82;;;1.98;;
64188;SDS011;50493;50.970;10.082;2023-04-03T01:18:16;6.20;;;2.80;;
64188;SDS011;50493;50.970;10.082;2023-04-03T01:20:45;4.85;;;1.92;;
64188;SDS011;50493;50.970;10.082;2023-04-03T01:23:40;6.50;;;2.60;;
64188;SDS011;50493;50.970;10.082;2023-04-03T01:26:25;5.07;;;2.00;;
64188;SDS011;50493;50.970;10.082;2023-04-03T01:28:51;6.15;;;1.95;;
64188;SDS011;50493;50.970;10.082;2023-04-03T01:31:20;7.20;;;2.30;;
64188;SDS011;50493;50.970;10.082;2023-04-03T01:33:51;6.07;;;1.55;;
64188;SDS011;50493;50.970;10.082;2023-04-03T01:36:18;4.57;;;1.77;;
64188;SDS011;50493;50.970;10.082;2023-04-03T01:38:45;4.68;;;1.38;;
64188;SDS011;50493;50.970;10.082;2023-04-03T01:41:11;4.55;;;1.83;;
64188;SDS011;50493;50.970;10.082;2023-04-03T01:43:36;6.40;;;1.73;;
64188;SDS011;50493;50.970;10.082;2023-04-03T01:46:02;3.97;;;1.38;;
64188;SDS011;50493;50.970;10.082;2023-04-03T01:48:27;5.35;;;1.60;;
64188;SDS011;50493;50.970;10.082;2023-04-03T01:50:54;3.65;;;1.42;;
64188;SDS011;50493;50.970;10.082;2023-04-03T01:53:20;4.78;;;1.52;;
64188;SDS011;50493;50.970;10.082;2023-04-03T01:55:45;4.78;;;1.60;;
64188;SDS011;50493;50.970;10.082;2023-04-03T01:58:11;3.88;;;1.70;;
64188;SDS011;50493;50.970;10.082;2023-04-03T02:00:36;5.75;;;1.50;;
64188;SDS011;50493;50.970;10.082;2023-04-03T02:03:02;5.68;;;1.67;;
64188;SDS011;50493;50.970;10.082;2023-04-03T02:05:27;5.30;;;1.65;;
64188;SDS011;50493;50.970;10.082;2023-04-03T02:07:54;3.95;;;1.48;;
64188;SDS011;50493;50.970;10.082;2023-04-03T02:10:20;2.90;;;1.40;;
64188;SDS011;50493;50.970;10.082;2023-04-03T02:12:45;2.88;;;1.40;;
64188;SDS011;50493;50.970;10.082;2023-04-03T02:15:10;4.90;;;1.40;;
64188;SDS011;50493;50.970;10.082;2023-04-03T02:17:36;3.38;;;1.40;;
64188;SDS011;50493;50.970;10.082;2023-04-03T02:20:01;5.65;;;1.50;;
64188;SDS011;50493;50.970;10.082;2023-04-03T02:22:28;4.15;;;1.50;;
64188;SDS011;50493;50.970;10.082;2023-04-03T02:24:54;5.80;;;1.42;;
64188;SDS011;50493;50.970;10.082;2023-04-03T02:27:20;3.53;;;1.48;;
64188;SDS011;50493;50.970;10.082;2023-04-03T02:29:45;6.47;;;1.60;;
64188;SDS011;50493;50.970;10.082;2023-04-03T02:32:10;5.13;;;2.00;;
64188;SDS011;50493;50.970;10.082;2023-04-03T02:34:36;3.88;;;1.40;;
64188;SDS011;50493;50.970;10.082;2023-04-03T02:37:01;4.85;;;2.03;;
64188;SDS011;50493;50.970;10.082;2023-04-03T02:39:27;3.10;;;1.40;;
64188;SDS011;50493;50.970;10.082;2023-04-03T02:41:53;5.72;;;1.70;;
64188;SDS011;50493;50.970;10.082;2023-04-03T02:44:19;3.20;;;1.63;;
64188;SDS011;50493;50.970;10.082;2023-04-03T02:46:44;3.83;;;1.70;;
64188;SDS011;50493;50.970;10.082;2023-04-03T02:49:10;3.75;;;1.30;;
64188;SDS011;50493;50.970;10.082;2023-04-03T02:51:35;5.13;;;1.73;;
64188;SDS011;50493;50.970;10.082;2023-04-03T02:54:00;6.35;;;1.90;;
64188;SDS011;50493;50.970;10.082;2023-04-03T02:56:26;4.70;;;1.50;;
64188;SDS011;50493;50.970;10.082;2023-04-03T02:58:53;4.97;;;1.45;;
64188;SDS011;50493;50.970;10.082;2023-04-03T03:01:19;5.78;;;1.60;;
64188;SDS011;50493;50.970;10.082;2023-04-03T03:03:44;5.85;;;1.55;;
64188;SDS011;50493;50.970;10.082;2023-04-03T03:06:11;5.45;;;1.77;;
64188;SDS011;50493;50.970;10.082;2023-04-03T03:08:38;3.47;;;1.20;;
64188;SDS011;50493;50.970;10.082;2023-04-03T03:11:04;4.13;;;1.60;;
64188;SDS011;50493;50.970;10.082;2023-04-03T03:13:30;6.10;;;1.63;;
64188;SDS011;50493;50.970;10.082;2023-04-03T03:15:57;4.53;;;1.50;;
64188;SDS011;50493;50.970;10.082;2023-04-03T03:18:23;4.68;;;1.40;;
64188;SDS011;50493;50.970;10.082;2023-04-03T03:20:50;3.00;;;1.40;;
64188;SDS011;50493;50.970;10.082;2023-04-03T03:23:16;4.95;;;1.40;;
64188;SDS011;50493;50.970;10.082;2023-04-03T03:25:41;4.53;;;1.38;;
64188;SDS011;50493;50.970;10.082;2023-04-03T03:28:07;3.28;;;1.48;;
64188;SDS011;50493;50.970;10.082;2023-04-03T03:30:32;5.47;;;1.80;;
64188;SDS011;50493;50.970;10.082;2023-04-03T03:32:59;4.82;;;1.63;;
64188;SDS011;50493;50.970;10.082;2023-04-03T03:35:25;5.55;;;1.73;;
64188;SDS011;50493;50.970;10.082;2023-04-03T03:37:50;5.15;;;1.83;;
64188;SDS011;50493;50.970;10.082;2023-04-03T03:40:16;5.55;;;2.58;;
64188;SDS011;50493;50.970;10.082;2023-04-03T03:42:41;9.05;;;2.67;;
64188;SDS011;50493;50.970;10.082;2023-04-03T03:45:07;4.60;;;1.75;;
64188;SDS011;50493;50.970;10.082;2023-04-03T03:47:33;6.10;;;2.03;;
64188;SDS011;50493;50.970;10.082;2023-04-03T03:50:00;6.55;;;2.45;;
64188;SDS011;50493;50.970;10.082;2023-04-03T03:52:26;9.20;;;2.95;;
64188;SDS011;50493;50.970;10.082;2023-04-03T03:54:51;10.68;;;2.92;;
64188;SDS011;50493;50.970;10.082;2023-04-03T03:57:16;5.32;;;1.70;;
64188;SDS011;50493;50.970;10.082;2023-04-03T03:59:42;7.03;;;2.58;;
64188;SDS011;50493;50.970;10.082;2023-04-03T04:02:09;7.38;;;2.67;;
64188;SDS011;50493;50.970;10.082;2023-04-03T04:04:34;8.18;;;3.05;;
64188;SDS011;50493;50.970;10.082;2023-04-03T04:07:01;4.22;;;1.80;;
64188;SDS011;50493;50.970;10.082;2023-04-03T04:09:26;5.93;;;2.25;;
64188;SDS011;50493;50.970;10.082;2023-04-03T04:11:52;6.47;;;2.20;;
64188;SDS011;50493;50.970;10.082;2023-04-03T04:14:17;4.97;;;1.73;;
64188;SDS011;50493;50.970;10.082;2023-04-03T04:16:45;4.90;;;1.80;;
64188;SDS011;50493;50.970;10.082;2023-04-03T04:19:10;5.13;;;1.85;;
64188;SDS011;50493;50.970;10.082;2023-04-03T04:21:36;4.85;;;1.85;;
64188;SDS011;50493;50.970;10.082;2023-04-03T04:24:02;4.75;;;2.15;;
64188;SDS011;50493;50.970;10.082;2023-04-03T04:26:28;6.85;;;2.50;;
64188;SDS011;50493;50.970;10.082;2023-04-03T04:28:53;3.33;;;1.60;;
64188;SDS011;50493;50.970;10.082;2023-04-03T04:31:18;5.80;;;2.22;;
64188;SDS011;50493;50.970;10.082;2023-04-03T04:33:44;5.72;;;2.15;;
64188;SDS011;50493;50.970;10.082;2023-04-03T04:36:09;5.90;;;2.03;;
64188;SDS011;50493;50.970;10.082;2023-04-03T04:38:35;4.93;;;2.10;;
64188;SDS011;50493;50.970;10.082;2023-04-03T04:41:01;7.15;;;2.30;;
64188;SDS011;50493;50.970;10.082;2023-04-03T04:43:27;5.57;;;2.08;;
64188;SDS011;50493;50.970;10.082;2023-04-03T04:45:59;5.75;;;2.13;;
64188;SDS011;50493;50.970;10.082;2023-04-03T04:48:26;4.03;;;1.98;;
64188;SDS011;50493;50.970;10.082;2023-04-03T04:50:51;8.00;;;2.58;;
64188;SDS011;50493;50.970;10.082;2023-04-03T04:53:17;9.10;;;2.75;;
64188;SDS011;50493;50.970;10.082;2023-04-03T04:55:42;7.30;;;2.70;;
64188;SDS011;50493;50.970;10.082;2023-04-03T04:58:09;5.55;;;2.78;;
64188;SDS011;50493;50.970;10.082;2023-04-03T05:00:35;6.35;;;2.80;;
64188;SDS011;50493;50.970;10.082;2023-04-03T05:03:00;8.45;;;2.88;;
64188;SDS011;50493;50.970;10.082;2023-04-03T05:05:26;6.18;;;2.53;;
64188;SDS011;50493;50.970;10.082;2023-04-03T05:07:51;9.25;;;2.83;;
64188;SDS011;50493;50.970;10.082;2023-04-03T05:10:16;6.38;;;2.55;;
64188;SDS011;50493;50.970;10.082;2023-04-03T05:12:42;3.92;;;2.10;;
64188;SDS011;50493;50.970;10.082;2023-04-03T05:15:09;7.13;;;2.67;;
64188;SDS011;50493;50.970;10.082;2023-04-03T05:17:35;5.22;;;2.60;;
64188;SDS011;50493;50.970;10.082;2023-04-03T05:20:00;4.97;;;2.55;;
64188;SDS011;50493;50.970;10.082;2023-04-03T05:22:26;7.72;;;2.60;;
64188;SDS011;50493;50.970;10.082;2023-04-03T05:24:51;6.78;;;2.60;;
64188;SDS011;50493;50.970;10.082;2023-04-03T05:27:16;5.55;;;2.67;;
64188;SDS011;50493;50.970;10.082;2023-04-03T05:29:42;5.93;;;3.05;;
64188;SDS011;50493;50.970;10.082;2023-04-03T05:32:10;5.15;;;2.10;;
64188;SDS011;50493;50.970;10.082;2023-04-03T05:34:35;7.30;;;3.20;;
64188;SDS011;50493;50.970;10.082;2023-04-03T05:37:00;5.75;;;3.35;;
64188;SDS011;50493;50.970;10.082;2023-04-03T05:39:28;5.75;;;2.60;;
64188;SDS011;50493;50.970;10.082;2023-04-03T05:41:53;8.15;;;3.13;;
64188;SDS011;50493;50.970;10.082;2023-04-03T05:44:18;10.55;;;3.05;;
64188;SDS011;50493;50.970;10.082;2023-04-03T05:46:44;6.53;;;2.88;;
64188;SDS011;50493;50.970;10.082;2023-04-03T05:49:10;7.03;;;3.30;;
64188;SDS011;50493;50.970;10.082;2023-04-03T05:51:36;7.90;;;3.17;;
64188;SDS011;50493;50.970;10.082;2023-04-03T05:54:06;5.57;;;2.65;;
64188;SDS011;50493;50.970;10.082;2023-04-03T05:56:37;6.75;;;2.75;;
64188;SDS011;50493;50.970;10.082;2023-04-03T05:59:02;10.27;;;3.15;;
64188;SDS011;50493;50.970;10.082;2023-04-03T06:01:28;7.80;;;3.20;;
64188;SDS011;50493;50.970;10.082;2023-04-03T06:03:53;9.20;;;3.35;;
64188;SDS011;50493;50.970;10.082;2023-04-03T06:06:20;5.20;;;2.60;;
64188;SDS011;50493;50.970;10.082;2023-04-03T06:08:47;10.77;;;4.65;;
64188;SDS011;50493;50.970;10.082;2023-04-03T06:11:12;6.93;;;2.63;;
64188;SDS011;50493;50.970;10.082;2023-04-03T06:13:37;6.32;;;2.80;;
64188;SDS011;50493;50.970;10.082;2023-04-03T06:16:03;9.98;;;4.22;;
64188;SDS011;50493;50.970;10.082;2023-04-03T06:18:29;12.00;;;6.43;;
64188;SDS011;50493;50.970;10.082;2023-04-03T06:20:55;9.80;;;3.78;;
64188;SDS011;50493;50.970;10.082;2023-04-03T06:23:21;9.10;;;4.13;;
64188;SDS011;50493;50.970;10.082;2023-04-03T06:25:47;11.23;;;5.78;;
64188;SDS011;50493;50.970;10.082;2023-04-03T06:28:12;7.90;;;4.45;;
64188;SDS011;50493;50.970;10.082;2023-04-03T06:30:38;7.25;;;3.40;;
64188;SDS011;50493;50.970;10.082;2023-04-03T06:33:03;7.28;;;3.95;;
64188;SDS011;50493;50.970;10.082;2023-04-03T06:35:28;8.10;;;4.65;;
64188;SDS011;50493;50.970;10.082;2023-04-03T06:37:55;9.48;;;4.38;;
64188;SDS011;50493;50.970;10.082;2023-04-03T06:40:22;8.00;;;4.38;;
64188;SDS011;50493;50.970;10.082;2023-04-03T06:42:49;8.77;;;4.90;;
64188;SDS011;50493;50.970;10.082;2023-04-03T06:45:15;7.90;;;4.45;;
64188;SDS011;50493;50.970;10.082;2023-04-03T06:47:41;10.88;;;4.85;;
64188;SDS011;50493;50.970;10.082;2023-04-03T06:50:07;9.30;;;4.80;;
64188;SDS011;50493;50.970;10.082;2023-04-03T06:52:36;7.43;;;3.75;;
64188;SDS011;50493;50.970;10.082;2023-04-03T06:55:01;9.95;;;3.60;;
64188;SDS011;50493;50.970;10.082;2023-04-03T06:57:28;6.43;;;3.25;;
64188;SDS011;50493;50.970;10.082;2023-04-03T06:59:54;7.40;;;3.95;;
64188;SDS011;50493;50.970;10.082;2023-04-03T07:02:19;9.75;;;3.53;;
64188;SDS011;50493;50.970;10.082;2023-04-03T07:04:45;8.55;;;3.72;;
64188;SDS011;50493;50.970;10.082;2023-04-03T07:07:11;6.90;;;3.90;;
64188;SDS011;50493;50.970;10.082;2023-04-03T07:09:36;5.25;;;2.95;;
64188;SDS011;50493;50.970;10.082;2023-04-03T07:12:02;7.45;;;3.50;;
64188;SDS011;50493;50.970;10.082;2023-04-03T07:14:28;7.95;;;3.67;;
64188;SDS011;50493;50.970;10.082;2023-04-03T07:16:54;7.38;;;4.03;;
64188;SDS011;50493;50.970;10.082;2023-04-03T07:19:19;6.40;;;3.63;;
64188;SDS011;50493;50.970;10.082;2023-04-03T07:21:45;7.38;;;3.13;;
64188;SDS011;50493;50.970;10.082;2023-04-03T07:24:10;8.77;;;3.35;;
64188;SDS011;50493;50.970;10.082;2023-04-03T07:26:36;5.05;;;2.65;;
64188;SDS011;50493;50.970;10.082;2023-04-03T07:29:01;8.35;;;4.00;;
64188;SDS011;50493;50.970;10.082;2023-04-03T07:31:28;6.50;;;3.13;;
64188;SDS011;50493;50.970;10.082;2023-04-03T07:33:54;7.97;;;3.75;;
64188;SDS011;50493;50.970;10.082;2023-04-03T07:36:20;7.03;;;3.58;;
64188;SDS011;50493;50.970;10.082;2023-04-03T07:38:46;4.18;;;2.72;;
64188;SDS011;50493;50.970;10.082;2023-04-03T07:41:12;6.80;;;3.13;;
64188;SDS011;50493;50.970;10.082;2023-04-03T07:43:40;12.77;;;5.90;;
64188;SDS011;50493;50.970;10.082;2023-04-03T07:46:06;6.88;;;3.45;;
64188;SDS011;50493;50.970;10.082;2023-04-03T07:48:32;7.55;;;4.10;;
64188;SDS011;50493;50.970;10.082;2023-04-03T07:50:59;7.93;;;3.50;;
64188;SDS011;50493;50.970;10.082;2023-04-03T07:53:25;9.73;;;4.70;;
64188;SDS011;50493;50.970;10.082;2023-04-03T07:55:51;6.72;;;2.90;;
64188;SDS011;50493;50.970;10.082;2023-04-03T07:58:20;6.40;;;3.28;;
64188;SDS011;50493;50.970;10.082;2023-04-03T08:00:46;6.38;;;3.00;;
64188;SDS011;50493;50.970;10.082;2023-04-03T08:03:12;8.10;;;3.72;;
64188;SDS011;50493;50.970;10.082;2023-04-03T08:05:40;8.07;;;3.33;;
64188;SDS011;50493;50.970;10.082;2023-04-03T08:08:07;5.82;;;3.25;;
64188;SDS011;50493;50.970;10.082;2023-04-03T08:10:34;12.77;;;4.60;;
64188;SDS011;50493;50.970;10.082;2023-04-03T08:13:00;5.68;;;2.70;;
64188;SDS011;50493;50.970;10.082;2023-04-03T08:15:26;6.90;;;3.15;;
64188;SDS011;50493;50.970;10.082;2023-04-03T08:17:51;7.50;;;3.03;;
64188;SDS011;50493;50.970;10.082;2023-04-03T08:20:17;9.05;;;3.70;;
64188;SDS011;50493;50.970;10.082;2023-04-03T08:22:44;6.18;;;2.13;;
64188;SDS011;50493;50.970;10.082;2023-04-03T08:25:09;3.55;;;1.80;;
64188;SDS011;50493;50.970;10.082;2023-04-03T08:27:35;5.20;;;1.85;;
64188;SDS011;50493;50.970;10.082;2023-04-03T08:30:00;4.40;;;2.03;;
64188;SDS011;50493;50.970;10.082;2023-04-03T08:32:26;6.47;;;2.97;;
64188;SDS011;50493;50.970;10.082;2023-04-03T08:34:52;5.85;;;2.78;;
64188;SDS011;50493;50.970;10.082;2023-04-03T08:37:17;5.13;;;2.67;;
64188;SDS011;50493;50.970;10.082;2023-04-03T08:39:45;6.72;;;2.60;;
64188;SDS011;50493;50.970;10.082;2023-04-03T08:42:14;5.47;;;1.70;;
64188;SDS011;50493;50.970;10.082;2023-04-03T08:44:46;4.57;;;1.73;;
64188;SDS011;50493;50.970;10.082;2023-04-03T08:47:16;6.85;;;1.70;;
64188;SDS011;50493;50.970;10.082;2023-04-03T08:49:49;8.00;;;1.60;;
64188;SDS011;50493;50.970;10.082;2023-04-03T08:52:19;3.67;;;1.35;;
64188;SDS011;50493;50.970;10.082;2023-04-03T08:54:51;5.57;;;1.70;;
64188;SDS011;50493;50.970;10.082;2023-04-03T08:59:50;2.90;;;1.42;;
64188;SDS011;50493;50.970;10.082;2023-04-03T09:02:23;3.70;;;1.50;;
64188;SDS011;50493;50.970;10.082;2023-04-03T09:04:52;4.97;;;1.10;;
64188;SDS011;50493;50.970;10.082;2023-04-03T09:07:19;3.78;;;1.40;;
64188;SDS011;50493;50.970;10.082;2023-04-03T09:09:52;14.35;;;5.00;;
64188;SDS011;50493;50.970;10.082;2023-04-03T09:12:20;6.50;;;2.40;;
64188;SDS011;50493;50.970;10.082;2023-04-03T09:14:53;5.35;;;1.52;;
64188;SDS011;50493;50.970;10.082;2023-04-03T09:17:30;11.73;;;4.35;;
64188;SDS011;50493;50.970;10.082;2023-04-03T09:20:09;12.98;;;4.88;;
64188;SDS011;50493;50.970;10.082;2023-04-03T09:22:42;6.68;;;2.70;;
64188;SDS011;50493;50.970;10.082;2023-04-03T09:25:12;5.43;;;2.33;;
64188;SDS011;50493;50.970;10.082;2023-04-03T09:27:40;3.47;;;1.20;;
64188;SDS011;50493;50.970;10.082;2023-04-03T09:30:08;5.32;;;2.22;;
64188;SDS011;50493;50.970;10.082;2023-04-03T09:32:38;2.30;;;1.00;;
64188;SDS011;50493;50.970;10.082;2023-04-03T09:35:06;3.22;;;1.10;;
64188;SDS011;50493;50.970;10.082;2023-04-03T09:37:44;3.58;;;1.20;;
64188;SDS011;50493;50.970;10.082;2023-04-03T09:40:32;3.55;;;1.10;;
64188;SDS011;50493;50.970;10.082;2023-04-03T09:43:00;5.80;;;1.20;;
64188;SDS011;50493;50.970;10.082;2023-04-03T09:45:28;3.03;;;1.15;;
64188;SDS011;50493;50.970;10.082;2023-04-03T09:48:04;4.63;;;1.83;;
64188;SDS011;50493;50.970;10.082;2023-04-03T09:50:38;7.57;;;2.80;;
64188;SDS011;50493;50.970;10.082;2023-04-03T09:53:25;4.05;;;2.22;;
64188;SDS011;50493;50.970;10.082;2023-04-03T09:55:54;4.95;;;2.35;;
64188;SDS011;50493;50.970;10.082;2023-04-03T09:58:24;3.00;;;1.20;;
64188;SDS011;50493;50.970;10.082;2023-04-03T10:00:56;6.00;;;2.83;;
64188;SDS011;50493;50.970;10.082;2023-04-03T10:03:24;3.75;;;1.23;;
64188;SDS011;50493;50.970;10.082;2023-04-03T10:05:52;3.83;;;1.60;;
64188;SDS011;50493;50.970;10.082;2023-04-03T10:08:20;3.17;;;1.30;;
64188;SDS011;50493;50.970;10.082;2023-04-03T10:11:01;5.18;;;1.30;;
64188;SDS011;50493;50.970;10.082;2023-04-03T10:13:36;3.97;;;2.10;;
64188;SDS011;50493;50.970;10.082;2023-04-03T10:16:15;4.25;;;1.63;;
64188;SDS011;50493;50.970;10.082;2023-04-03T10:18:44;4.03;;;1.90;;
64188;SDS011;50493;50.970;10.082;2023-04-03T10:21:15;4.50;;;1.25;;
64188;SDS011;50493;50.970;10.082;2023-04-03T10:23:51;5.68;;;2.10;;
64188;SDS011;50493;50.970;10.082;2023-04-03T10:26:27;5.13;;;2.33;;
64188;SDS011;50493;50.970;10.082;2023-04-03T10:29:00;3.60;;;1.70;;
64188;SDS011;50493;50.970;10.082;2023-04-03T10:31:34;3.70;;;1.50;;
64188;SDS011;50493;50.970;10.082;2023-04-03T10:34:03;3.33;;;1.20;;
64188;SDS011;50493;50.970;10.082;2023-04-03T10:36:34;3.33;;;1.33;;
64188;SDS011;50493;50.970;10.082;2023-04-03T10:39:08;3.38;;;1.20;;
64188;SDS011;50493;50.970;10.082;2023-04-03T10:41:46;2.47;;;1.20;;
64188;SDS011;50493;50.970;10.082;2023-04-03T10:44:20;8.23;;;3.53;;
64188;SDS011;50493;50.970;10.082;2023-04-03T10:46:58;9.93;;;3.92;;
64188;SDS011;50493;50.970;10.082;2023-04-03T10:49:33;13.30;;;6.13;;
64188;SDS011;50493;50.970;10.082;2023-04-03T10:52:11;6.57;;;3.45;;
64188;SDS011;50493;50.970;10.082;2023-04-03T10:54:43;6.57;;;2.85;;
64188;SDS011;50493;50.970;10.082;2023-04-03T10:57:15;3.13;;;1.40;;
64188;SDS011;50493;50.970;10.082;2023-04-03T10:59:43;5.00;;;2.22;;
64188;SDS011;50493;50.970;10.082;2023-04-03T11:02:12;3.17;;;1.42;;
64188;SDS011;50493;50.970;10.082;2023-04-03T11:04:46;3.55;;;1.85;;
64188;SDS011;50493;50.970;10.082;2023-04-03T11:07:17;4.45;;;2.08;;
64188;SDS011;50493;50.970;10.082;2023-04-03T11:09:46;2.95;;;1.50;;
64188;SDS011;50493;50.970;10.082;2023-04-03T11:12:17;4.70;;;1.90;;
64188;SDS011;50493;50.970;10.082;2023-04-03T11:14:46;4.47;;;1.90;;
64188;SDS011;50493;50.970;10.082;2023-04-03T11:17:18;3.88;;;1.48;;
64188;SDS011;50493;50.970;10.082;2023-04-03T11:19:49;4.30;;;1.63;;
64188;SDS011;50493;50.970;10.082;2023-04-03T11:22:22;3.03;;;1.45;;
64188;SDS011;50493;50.970;10.082;2023-04-03T11:24:55;3.22;;;1.20;;
64188;SDS011;50493;50.970;10.082;2023-04-03T11:29:59;3.20;;;1.42;;
64188;SDS011;50493;50.970;10.082;2023-04-03T11:32:41;4.82;;;1.40;;
64188;SDS011;50493;50.970;10.082;2023-04-03T11:35:17;3.90;;;1.50;;
64188;SDS011;50493;50.970;10.082;2023-04-03T11:37:44;4.07;;;1.90;;
64188;SDS011;50493;50.970;10.082;2023-04-03T11:40:19;6.80;;;2.70;;
64188;SDS011;50493;50.970;10.082;2023-04-03T11:42:51;4.75;;;2.60;;
64188;SDS011;50493;50.970;10.082;2023-04-03T11:45:26;4.90;;;1.92;;
64188;SDS011;50493;50.970;10.082;2023-04-03T11:47:58;3.45;;;1.42;;
64188;SDS011;50493;50.970;10.082;2023-04-03T11:50:32;8.02;;;3.45;;
64188;SDS011;50493;50.970;10.082;2023-04-03T12:01:47;5.82;;;1.60;;
64188;SDS011;50493;50.970;10.082;2023-04-03T12:04:14;5.72;;;2.50;;
64188;SDS011;50493;50.970;10.082;2023-04-03T12:06:51;8.70;;;2.88;;
64188;SDS011;50493;50.970;10.082;2023-04-03T12:09:24;4.13;;;1.83;;
64188;SDS011;50493;50.970;10.082;2023-04-03T12:11:52;4.15;;;1.67;;
64188;SDS011;50493;50.970;10.082;2023-04-03T12:14:22;5.63;;;1.60;;
64188;SDS011;50493;50.970;10.082;2023-04-03T12:16:50;6.30;;;2.65;;
64188;SDS011;50493;50.970;10.082;2023-04-03T12:19:29;5.60;;;1.88;;
64188;SDS011;50493;50.970;10.082;2023-04-03T12:22:04;4.47;;;1.77;;
64188;SDS011;50493;50.970;10.082;2023-04-03T12:24:41;2.45;;;1.20;;
64188;SDS011;50493;50.970;10.082;2023-04-03T12:27:17;3.38;;;1.50;;
64188;SDS011;50493;50.970;10.082;2023-04-03T12:29:51;4.47;;;1.10;;
64188;SDS011;50493;50.970;10.082;2023-04-03T12:32:24;4.13;;;1.20;;
64188;SDS011;50493;50.970;10.082;2023-04-03T12:35:03;9.25;;;1.38;;
64188;SDS011;50493;50.970;10.082;2023-04-03T12:37:54;4.63;;;1.70;;
64188;SDS011;50493;50.970;10.082;2023-04-03T12:40:36;4.00;;;1.45;;
64188;SDS011;50493;50.970;10.082;2023-04-03T12:43:10;3.80;;;1.77;;
64188;SDS011;50493;50.970;10.082;2023-04-03T12:45:58;2.92;;;1.50;;
64188;SDS011;50493;50.970;10.082;2023-04-03T12:48:27;4.70;;;1.42;;
64188;SDS011;50493;50.970;10.082;2023-04-03T12:50:55;3.00;;;1.20;;
64188;SDS011;50493;50.970;10.082;2023-04-03T12:53:23;4.80;;;1.20;;
64188;SDS011;50493;50.970;10.082;2023-04-03T12:55:53;3.40;;;1.30;;
64188;SDS011;50493;50.970;10.082;2023-04-03T12:58:21;6.18;;;1.30;;
64188;SDS011;50493;50.970;10.082;2023-04-03T13:00:58;3.33;;;1.00;;
64188;SDS011;50493;50.970;10.082;2023-04-03T13:03:26;4.05;;;1.50;;
64188;SDS011;50493;50.970;10.082;2023-04-03T13:05:52;4.15;;;1.80;;
64188;SDS011;50493;50.970;10.082;2023-04-03T13:08:19;5.03;;;1.70;;
64188;SDS011;50493;50.970;10.082;2023-04-03T13:10:48;3.45;;;1.67;;
64188;SDS011;50493;50.970;10.082;2023-04-03T13:13:18;3.88;;;1.33;;
64188;SDS011;50493;50.970;10.082;2023-04-03T13:15:44;5.45;;;1.83;;
64188;SDS011;50493;50.970;10.082;2023-04-03T13:18:23;3.65;;;1.27;;
64188;SDS011;50493;50.970;10.082;2023-04-03T13:20:51;4.05;;;1.58;;
64188;SDS011;50493;50.970;10.082;2023-04-03T13:23:17;4.07;;;1.80;;
64188;SDS011;50493;50.970;10.082;2023-04-03T13:25:45;4.38;;;1.38;;
64188;SDS011;50493;50.970;10.082;2023-04-03T13:28:13;3.28;;;1.60;;
64188;SDS011;50493;50.970;10.082;2023-04-03T13:30:54;3.75;;;1.50;;
64188;SDS011;50493;50.970;10.082;2023-04-03T13:33:23;4.32;;;1.42;;
64188;SDS011;50493;50.970;10.082;2023-04-03T13:35:55;4.88;;;1.45;;
64188;SDS011;50493;50.970;10.082;2023-04-03T13:38:23;3.75;;;1.42;;
64188;SDS011;50493;50.970;10.082;2023-04-03T13:40:50;3.42;;;1.38;;
64188;SDS011;50493;50.970;10.082;2023-04-03T13:43:19;4.15;;;1.40;;
64188;SDS011;50493;50.970;10.082;2023-04-03T13:48:37;5.97;;;2.20;;
64188;SDS011;50493;50.970;10.082;2023-04-03T13:51:05;4.78;;;2.20;;
64188;SDS011;50493;50.970;10.082;2023-04-03T13:53:42;5.03;;;1.33;;
64188;SDS011;50493;50.970;10.082;2023-04-03T13:56:15;4.50;;;1.40;;
64188;SDS011;50493;50.970;10.082;2023-04-03T13:58:52;3.78;;;1.55;;
64188;SDS011;50493;50.970;10.082;2023-04-03T14:01:21;3.28;;;1.50;;
64188;SDS011;50493;50.970;10.082;2023-04-03T14:03:53;3.15;;;1.30;;
64188;SDS011;50493;50.970;10.082;2023-04-03T14:06:20;3.80;;;1.45;;
64188;SDS011;50493;50.970;10.082;2023-04-03T14:08:47;6.43;;;1.63;;
64188;SDS011;50493;50.970;10.082;2023-04-03T14:11:14;5.20;;;1.65;;
64188;SDS011;50493;50.970;10.082;2023-04-03T14:13:41;3.42;;;1.35;;
64188;SDS011;50493;50.970;10.082;2023-04-03T14:16:07;4.13;;;1.30;;
64188;SDS011;50493;50.970;10.082;2023-04-03T14:18:36;4.25;;;1.58;;
64188;SDS011;50493;50.970;10.082;2023-04-03T14:21:03;3.60;;;1.30;;
64188;SDS011;50493;50.970;10.082;2023-04-03T14:23:29;3.85;;;1.63;;
64188;SDS011;50493;50.970;10.082;2023-04-03T14:25:55;4.30;;;1.67;;
64188;SDS011;50493;50.970;10.082;2023-04-03T14:28:21;3.85;;;1.50;;
64188;SDS011;50493;50.970;10.082;2023-04-03T14:30:47;3.13;;;1.48;;
64188;SDS011;50493;50.970;10.082;2023-04-03T14:33:14;3.97;;;1.63;;
64188;SDS011;50493;50.970;10.082;2023-04-03T14:35:41;3.80;;;1.42;;
64188;SDS011;50493;50.970;10.082;2023-04-03T14:38:13;7.68;;;2.92;;
64188;SDS011;50493;50.970;10.082;2023-04-03T14:40:46;3.70;;;1.63;;
64188;SDS011;50493;50.970;10.082;2023-04-03T14:43:12;5.50;;;1.80;;
64188;SDS011;50493;50.970;10.082;2023-04-03T14:45:37;3.53;;;1.50;;
64188;SDS011;50493;50.970;10.082;2023-04-03T14:48:03;3.65;;;1.58;;
64188;SDS011;50493;50.970;10.082;2023-04-03T14:50:30;7.07;;;2.80;;
64188;SDS011;50493;50.970;10.082;2023-04-03T14:52:56;6.68;;;2.85;;
64188;SDS011;50493;50.970;10.082;2023-04-03T14:55:25;5.57;;;2.40;;